Time;durP1;ratioP1;P1;durP2;ratioP2;P2;SDS_P1;SDS_P2;PMS_P1;PMS_P2;Temp;Humidity;BMP_temperature;BMP_pressure;BME280_temperature;BME280_humidity;BME280_pressure;Samples;Min_cycle;Max_cycle;Signal;HPM_P1;HPM_P2
2023/12/25 00:02:16;;;;;;;0.10;0.10;;;5.10;99.90;;;;;;5050214;28;20036;-75
2023/12/25 00:04:42;;;;;;;20.65;18.88;;;5.10;99.90;;;;;;5049589;28;20280;-75
2023/12/25 00:07:08;;;;;;;0.10;0.10;;;5.00;99.90;;;;;;5048535;28;20715;-76
2023/12/25 00:09:34;;;;;;;0.10;0.10;;;5.10;99.90;;;;;;5048745;28;20025;-75
2023/12/25 00:12:00;;;;;;;0.15;0.15;;;5.00;99.90;;;;;;5044226;28;20032;-75
2023/12/25 00:14:27;;;;;;;0.10;0.10;;;5.10;99.90;;;;;;5047742;28;20009;-78
2023/12/25 00:16:53;;;;;;;0.10;0.10;;;4.80;99.90;;;;;;5045863;28;20013;-75
2023/12/25 00:19:20;;;;;;;0.10;0.10;;;4.80;99.90;;;;;;5052220;28;20021;-75
2023/12/25 00:21:46;;;;;;;0.00;0.00;;;4.90;99.90;;;;;;5045832;28;20028;-75
2023/12/25 00:24:12;;;;;;;0.00;0.00;;;4.90;99.90;;;;;;5044057;28;20735;-74
2023/12/25 00:26:40;;;;;;;0.00;0.00;;;4.90;99.90;;;;;;5044785;28;20075;-76
2023/12/25 00:29:07;;;;;;;0.00;0.00;;;4.90;99.90;;;;;;5046000;28;20033;-75
2023/12/25 00:31:32;;;;;;;0.10;0.10;;;5.00;99.90;;;;;;5043541;28;20104;-74
2023/12/25 00:33:58;;;;;;;0.10;0.10;;;4.90;99.90;;;;;;5026072;28;20057;-74
2023/12/25 00:36:24;;;;;;;0.10;0.10;;;5.00;99.90;;;;;;5026103;28;20112;-75
2023/12/25 00:38:50;;;;;;;1.42;1.33;;;4.90;99.90;;;;;;5043548;28;20028;-75
2023/12/25 00:41:16;;;;;;;24.38;13.45;;;4.80;99.90;;;;;;5047880;28;20029;-76
2023/12/25 00:43:41;;;;;;;12.02;11.48;;;4.80;99.90;;;;;;5048972;28;20090;-75
2023/12/25 00:46:08;;;;;;;0.10;0.10;;;4.80;99.90;;;;;;5048187;28;20021;-74
2023/12/25 00:48:36;;;;;;;0.10;0.10;;;4.80;99.90;;;;;;5044685;28;20029;-75
2023/12/25 00:51:02;;;;;;;0.10;0.10;;;4.80;99.90;;;;;;5049472;28;20572;-75
2023/12/25 00:53:28;;;;;;;0.10;0.10;;;4.90;99.90;;;;;;5047656;28;20016;-76
2023/12/25 00:55:53;;;;;;;15.27;14.52;;;5.00;99.90;;;;;;5043595;28;20049;-75
2023/12/25 00:58:21;;;;;;;0.00;0.00;;;4.90;99.90;;;;;;5045940;28;20658;-75
2023/12/25 01:00:47;;;;;;;0.00;0.00;;;5.00;99.90;;;;;;5055489;28;20130;-75
2023/12/25 01:03:13;;;;;;;0.10;0.10;;;5.00;99.90;;;;;;5053856;28;20057;-75
2023/12/25 01:05:39;;;;;;;0.10;0.10;;;5.00;99.90;;;;;;5048411;28;20678;-76
2023/12/25 01:08:07;;;;;;;3.40;2.92;;;6.20;99.90;;;;;;5047003;28;20021;-75
2023/12/25 01:10:33;;;;;;;0.00;0.00;;;5.00;99.90;;;;;;5045838;28;20044;-74
2023/12/25 01:12:58;;;;;;;0.10;0.10;;;5.10;99.90;;;;;;5044705;28;20021;-77
2023/12/25 01:15:24;;;;;;;0.32;0.32;;;5.20;99.90;;;;;;5045251;28;20025;-75
2023/12/25 01:17:50;;;;;;;0.00;0.00;;;5.20;99.90;;;;;;5046165;28;20033;-76
2023/12/25 01:20:16;;;;;;;0.10;0.10;;;5.20;99.90;;;;;;5044974;28;20025;-75
2023/12/25 01:22:41;;;;;;;2.55;2.45;;;5.20;99.90;;;;;;5045967;28;20045;-75
2023/12/25 01:25:07;;;;;;;0.10;0.10;;;5.20;99.90;;;;;;5045268;28;20036;-75
2023/12/25 01:27:33;;;;;;;0.20;0.20;;;5.20;99.90;;;;;;5045329;28;20494;-76
2023/12/25 01:29:59;;;;;;;0.00;0.00;;;5.20;99.90;;;;;;5045888;28;20032;-75
2023/12/25 01:32:24;;;;;;;0.10;0.10;;;5.20;99.90;;;;;;5046107;28;20036;-77
2023/12/25 01:34:50;;;;;;;0.20;0.20;;;5.20;99.90;;;;;;5046352;28;20080;-75
2023/12/25 01:37:16;;;;;;;0.05;0.05;;;5.20;99.90;;;;;;5045942;28;20652;-75
2023/12/25 01:39:42;;;;;;;0.00;0.00;;;5.20;99.90;;;;;;5044780;28;20046;-75
2023/12/25 01:42:08;;;;;;;10.73;9.95;;;5.10;99.90;;;;;;5044503;28;20074;-75
2023/12/25 01:44:33;;;;;;;0.10;0.10;;;5.10;99.90;;;;;;5043665;28;20753;-77
2023/12/25 01:46:59;;;;;;;0.10;0.10;;;5.10;99.90;;;;;;5043027;28;20021;-75
2023/12/25 01:49:25;;;;;;;0.38;0.38;;;5.10;99.90;;;;;;5045749;28;20029;-75
2023/12/25 01:51:52;;;;;;;0.00;0.00;;;5.10;99.90;;;;;;5044697;28;20021;-75
2023/12/25 01:54:18;;;;;;;0.10;0.10;;;5.10;99.90;;;;;;5045377;28;20021;-76
2023/12/25 01:56:44;;;;;;;0.20;0.20;;;5.20;99.90;;;;;;5052943;28;20028;-75
2023/12/25 01:59:10;;;;;;;12.60;8.25;;;5.20;99.90;;;;;;5053739;28;20025;-75
2023/12/25 02:01:36;;;;;;;13.40;12.95;;;5.20;99.90;;;;;;5053092;28;20017;-75
2023/12/25 02:04:02;;;;;;;0.00;0.00;;;5.20;99.90;;;;;;5055515;28;20398;-75
2023/12/25 02:06:29;;;;;;;0.10;0.10;;;5.20;99.90;;;;;;5053743;28;20021;-75
2023/12/25 02:08:55;;;;;;;5.53;5.30;;;5.20;99.90;;;;;;5032317;28;20021;-75
2023/12/25 02:11:21;;;;;;;0.10;0.10;;;5.20;99.90;;;;;;5051550;28;20029;-77
2023/12/25 02:13:47;;;;;;;0.10;0.10;;;5.20;99.90;;;;;;5053885;28;20029;-77
2023/12/25 02:16:13;;;;;;;0.00;0.00;;;5.10;99.90;;;;;;5047354;28;20033;-75
2023/12/25 02:18:39;;;;;;;0.10;0.10;;;5.20;99.90;;;;;;5045726;28;20051;-75
2023/12/25 02:21:06;;;;;;;0.22;0.22;;;5.20;99.90;;;;;;5045638;28;20112;-75
2023/12/25 02:23:37;;;;;;;0.00;0.00;;;5.30;99.90;;;;;;5029245;28;20045;-76
2023/12/25 02:26:05;;;;;;;0.10;0.10;;;5.30;99.90;;;;;;5045942;28;20018;-75
2023/12/25 02:28:30;;;;;;;0.00;0.00;;;5.30;99.90;;;;;;5048965;28;20029;-77
2023/12/25 02:30:58;;;;;;;0.45;0.45;;;5.30;99.90;;;;;;5043926;28;20672;-77
2023/12/25 02:33:24;;;;;;;0.25;0.25;;;5.30;99.90;;;;;;5023913;28;20278;-76
2023/12/25 02:35:49;;;;;;;0.10;0.10;;;5.20;99.90;;;;;;5044747;28;20732;-75
2023/12/25 02:38:15;;;;;;;0.10;0.10;;;5.20;99.90;;;;;;5054258;28;20033;-75
2023/12/25 02:40:41;;;;;;;0.00;0.00;;;5.20;99.90;;;;;;5041113;28;20040;-78
2023/12/25 02:43:11;;;;;;;0.10;0.10;;;5.20;99.90;;;;;;5048917;28;20051;-75
2023/12/25 02:45:37;;;;;;;1.10;1.10;;;5.20;99.90;;;;;;5030004;28;20033;-79
2023/12/25 02:48:03;;;;;;;0.00;0.00;;;5.20;99.90;;;;;;5045231;28;20033;-75
2023/12/25 02:50:29;;;;;;;0.00;0.00;;;5.10;99.90;;;;;;5048010;28;20144;-75
2023/12/25 02:52:55;;;;;;;0.10;0.10;;;5.10;99.90;;;;;;5046691;28;20090;-76
2023/12/25 02:55:21;;;;;;;0.10;0.10;;;5.10;99.90;;;;;;5048544;28;20092;-78
2023/12/25 02:57:48;;;;;;;0.63;0.63;;;5.10;99.90;;;;;;5047255;28;20036;-77
2023/12/25 03:00:14;;;;;;;0.00;0.00;;;5.10;99.90;;;;;;5046804;28;20028;-75
2023/12/25 03:02:40;;;;;;;0.10;0.10;;;5.00;99.90;;;;;;5045363;28;20060;-75
2023/12/25 03:05:06;;;;;;;0.10;0.10;;;5.00;99.90;;;;;;5049328;28;20033;-75
2023/12/25 03:07:32;;;;;;;0.05;0.05;;;4.90;99.90;;;;;;5046096;28;20021;-75
2023/12/25 03:09:58;;;;;;;21.55;20.85;;;5.00;99.90;;;;;;5050612;28;20033;-77
2023/12/25 03:12:24;;;;;;;0.13;0.13;;;5.00;99.90;;;;;;5051265;28;20033;-78
2023/12/25 03:14:49;;;;;;;1.00;1.00;;;5.00;99.90;;;;;;5049257;28;20029;-75
2023/12/25 03:17:15;;;;;;;0.00;0.00;;;5.00;99.90;;;;;;5048130;28;20033;-77
2023/12/25 03:19:41;;;;;;;0.00;0.00;;;5.00;99.90;;;;;;5046815;28;20116;-76
2023/12/25 03:22:07;;;;;;;0.03;0.03;;;5.00;99.90;;;;;;5048252;28;20021;-75
2023/12/25 03:24:32;;;;;;;0.10;0.10;;;5.00;99.90;;;;;;5050747;28;20070;-75
2023/12/25 03:26:58;;;;;;;0.00;0.00;;;5.00;99.90;;;;;;5050793;28;20578;-76
2023/12/25 03:29:24;;;;;;;0.10;0.10;;;5.10;99.90;;;;;;5049545;28;20053;-77
2023/12/25 03:31:50;;;;;;;0.00;0.00;;;5.00;99.90;;;;;;5048485;28;20013;-76
2023/12/25 03:34:18;;;;;;;0.03;0.03;;;5.00;99.90;;;;;;5048002;28;20019;-75
2023/12/25 03:36:47;;;;;;;0.10;0.10;;;5.00;99.90;;;;;;5046395;28;20096;-78
2023/12/25 03:39:13;;;;;;;0.03;0.03;;;5.00;99.90;;;;;;5047466;28;20029;-75
2023/12/25 03:41:38;;;;;;;1.95;1.10;;;5.00;99.90;;;;;;5043981;28;20021;-75
2023/12/25 03:44:04;;;;;;;0.00;0.00;;;5.00;99.90;;;;;;5045434;28;20094;-76
2023/12/25 03:46:30;;;;;;;0.10;0.10;;;5.10;99.90;;;;;;5047272;28;20024;-76
2023/12/25 03:48:56;;;;;;;0.00;0.00;;;5.10;99.90;;;;;;5047255;28;20551;-76
2023/12/25 03:51:22;;;;;;;0.10;0.10;;;5.00;99.90;;;;;;5046337;28;20032;-75
2023/12/25 03:53:48;;;;;;;0.00;0.00;;;5.00;99.90;;;;;;5027983;28;20373;-75
2023/12/25 03:56:17;;;;;;;0.08;0.08;;;4.80;99.90;;;;;;5045217;28;20722;-75
2023/12/25 03:58:44;;;;;;;0.10;0.10;;;4.70;99.90;;;;;;5045912;28;20025;-75
2023/12/25 04:01:13;;;;;;;0.20;0.20;;;4.70;99.90;;;;;;5044713;28;20013;-75
2023/12/25 04:03:38;;;;;;;0.40;0.40;;;4.70;99.90;;;;;;5047039;28;20056;-75
2023/12/25 04:06:05;;;;;;;0.10;0.10;;;4.60;99.90;;;;;;5047350;28;20017;-75
2023/12/25 04:08:30;;;;;;;0.10;0.10;;;4.60;99.90;;;;;;5046656;28;20076;-75
2023/12/25 04:10:56;;;;;;;0.00;0.00;;;4.70;99.90;;;;;;5046895;28;20071;-75
2023/12/25 04:13:22;;;;;;;0.10;0.10;;;4.70;99.90;;;;;;5047637;28;20671;-76
2023/12/25 04:15:49;;;;;;;0.10;0.10;;;4.70;99.90;;;;;;5047580;28;20027;-78
2023/12/25 04:18:16;;;;;;;5.40;5.20;;;4.60;99.90;;;;;;5047412;28;20522;-75
2023/12/25 04:20:43;;;;;;;0.10;0.10;;;4.50;99.90;;;;;;5050371;28;20009;-75
2023/12/25 04:23:08;;;;;;;0.10;0.10;;;4.50;99.90;;;;;;5050774;28;20040;-75
2023/12/25 04:25:34;;;;;;;0.10;0.10;;;4.50;99.90;;;;;;5050050;28;20017;-76
2023/12/25 04:28:00;;;;;;;0.10;0.10;;;4.50;99.90;;;;;;5051516;28;20020;-77
2023/12/25 04:30:26;;;;;;;0.10;0.10;;;4.40;99.90;;;;;;5049784;28;20021;-80
2023/12/25 04:32:53;;;;;;;9.18;8.75;;;4.50;99.90;;;;;;5050400;28;20096;-76
2023/12/25 04:35:18;;;;;;;0.10;0.10;;;4.40;99.90;;;;;;5052651;28;20055;-76
2023/12/25 04:37:44;;;;;;;0.10;0.10;;;4.30;99.90;;;;;;5052053;28;20671;-76
2023/12/25 04:40:11;;;;;;;0.10;0.10;;;4.30;99.90;;;;;;5053598;28;20071;-75
2023/12/25 04:42:36;;;;;;;0.10;0.10;;;4.30;99.90;;;;;;5047998;28;20024;-76
2023/12/25 04:45:02;;;;;;;0.13;0.13;;;4.30;99.90;;;;;;5045997;28;20108;-76
2023/12/25 04:47:28;;;;;;;0.10;0.10;;;4.30;99.90;;;;;;5046461;28;20593;-76
2023/12/25 04:49:56;;;;;;;0.00;0.00;;;4.30;99.90;;;;;;5046385;28;20055;-76
2023/12/25 04:52:22;;;;;;;0.05;0.05;;;4.30;99.90;;;;;;5047615;28;20013;-76
2023/12/25 04:54:49;;;;;;;0.10;0.10;;;4.20;99.90;;;;;;5054583;28;20032;-77
2023/12/25 04:57:15;;;;;;;0.00;0.00;;;4.20;99.90;;;;;;5049454;28;20500;-77
2023/12/25 04:59:40;;;;;;;0.00;0.00;;;4.20;99.90;;;;;;5047787;28;20025;-76
2023/12/25 05:02:08;;;;;;;0.10;0.10;;;4.10;99.90;;;;;;5044888;28;20021;-75
2023/12/25 05:04:33;;;;;;;0.10;0.10;;;4.20;99.90;;;;;;5045212;28;20122;-75
2023/12/25 05:06:59;;;;;;;0.20;0.20;;;4.20;99.90;;;;;;5044293;28;20025;-75
2023/12/25 05:09:25;;;;;;;0.03;0.03;;;4.20;99.90;;;;;;5045604;28;20063;-74
2023/12/25 05:11:51;;;;;;;0.10;0.10;;;4.30;99.90;;;;;;5046461;28;20273;-74
2023/12/25 05:14:17;;;;;;;0.10;0.10;;;4.30;99.90;;;;;;5047200;28;20040;-76
2023/12/25 05:16:43;;;;;;;0.10;0.10;;;4.30;99.90;;;;;;5026291;28;20043;-74
2023/12/25 05:19:10;;;;;;;0.10;0.10;;;4.30;99.90;;;;;;5045974;28;20044;-76
2023/12/25 05:21:36;;;;;;;1.58;1.55;;;4.20;99.90;;;;;;5049764;28;20021;-75
2023/12/25 05:24:04;;;;;;;0.00;0.00;;;4.20;99.90;;;;;;5049244;28;20024;-74
2023/12/25 05:26:30;;;;;;;0.10;0.10;;;4.20;99.90;;;;;;5047979;28;20175;-75
2023/12/25 05:28:56;;;;;;;4.03;3.72;;;4.20;99.90;;;;;;5046913;28;20057;-77
2023/12/25 05:31:22;;;;;;;0.10;0.10;;;4.20;99.90;;;;;;5044246;28;20036;-76
2023/12/25 05:33:47;;;;;;;0.10;0.10;;;4.20;99.90;;;;;;5047926;28;20048;-76
2023/12/25 05:36:13;;;;;;;0.20;0.20;;;4.20;99.90;;;;;;5046791;28;20059;-76
2023/12/25 05:38:39;;;;;;;0.10;0.10;;;4.30;99.90;;;;;;5047317;28;20040;-75
2023/12/25 05:41:05;;;;;;;0.10;0.10;;;4.30;99.90;;;;;;5048103;28;20033;-75
2023/12/25 05:43:31;;;;;;;8.18;3.22;;;4.20;99.90;;;;;;5046277;28;20114;-77
2023/12/25 05:45:56;;;;;;;0.10;0.10;;;4.20;99.90;;;;;;5046645;28;20017;-76
2023/12/25 05:48:22;;;;;;;0.10;0.10;;;4.30;99.90;;;;;;5045501;28;20029;-75
2023/12/25 05:50:48;;;;;;;0.10;0.10;;;4.30;99.90;;;;;;5046519;28;20073;-75
2023/12/25 05:53:14;;;;;;;0.00;0.00;;;4.30;99.90;;;;;;5044762;28;20040;-75
2023/12/25 05:55:39;;;;;;;0.10;0.10;;;4.40;99.90;;;;;;5046505;28;20025;-75
2023/12/25 05:58:05;;;;;;;0.10;0.10;;;4.40;99.90;;;;;;5047493;28;20064;-74
2023/12/25 06:00:32;;;;;;;0.10;0.10;;;;;;;;;;5052966;28;20093;-75
2023/12/25 06:02:58;;;;;;;0.10;0.10;;;;;;;;;;5057691;28;20084;-75
2023/12/25 06:05:25;;;;;;;0.03;0.03;;;4.50;99.90;;;;;;5053072;28;20025;-75
2023/12/25 06:07:51;;;;;;;0.10;0.10;;;;;;;;;;5048995;28;20060;-74
2023/12/25 06:10:17;;;;;;;0.10;0.10;;;4.50;99.90;;;;;;5065603;28;20108;-75
2023/12/25 06:12:43;;;;;;;0.50;0.50;;;4.50;99.90;;;;;;5066514;28;20044;-75
2023/12/25 06:15:10;;;;;;;0.00;0.00;;;4.60;99.90;;;;;;5065684;28;20025;-77
2023/12/25 06:17:35;;;;;;;0.10;0.10;;;4.60;99.90;;;;;;5067447;28;20040;-75
2023/12/25 06:20:04;;;;;;;0.13;0.13;;;;;;;;;;5071544;28;20029;-76
2023/12/25 06:22:30;;;;;;;0.10;0.10;;;4.70;99.90;;;;;;5077472;28;20663;-75
2023/12/25 06:24:56;;;;;;;0.10;0.10;;;4.80;99.90;;;;;;5076574;28;20016;-75
2023/12/25 06:27:21;;;;;;;0.00;0.00;;;4.70;99.90;;;;;;5074545;28;20028;-76
2023/12/25 06:29:47;;;;;;;0.10;0.10;;;4.70;99.90;;;;;;5053816;28;20104;-75
2023/12/25 06:32:15;;;;;;;0.10;0.10;;;4.80;99.90;;;;;;5068619;28;20020;-75
2023/12/25 06:34:41;;;;;;;0.10;0.10;;;4.70;99.90;;;;;;5066890;28;20033;-75
2023/12/25 06:37:07;;;;;;;0.10;0.10;;;;;;;;;;5064176;28;20021;-75
2023/12/25 06:39:34;;;;;;;0.10;0.10;;;;;;;;;;5068063;28;20042;-75
2023/12/25 06:42:03;;;;;;;0.10;0.10;;;4.90;99.90;;;;;;5068412;28;20051;-75
2023/12/25 06:44:29;;;;;;;1.08;1.08;;;4.90;99.90;;;;;;5064356;28;20860;-77
2023/12/25 06:46:55;;;;;;;0.00;0.00;;;;;;;;;;5066523;28;20027;-74
2023/12/25 06:49:21;;;;;;;0.10;0.10;;;4.90;99.90;;;;;;5051922;28;20042;-75
2023/12/25 06:51:50;;;;;;;0.20;0.20;;;5.00;99.90;;;;;;5071817;28;20072;-81
2023/12/25 06:54:22;;;;;;;0.10;0.10;;;5.00;99.90;;;;;;5071609;28;20017;-80
2023/12/25 06:56:48;;;;;;;0.10;0.10;;;5.00;99.90;;;;;;5068922;28;20020;-75
2023/12/25 06:59:14;;;;;;;0.10;0.10;;;5.00;99.90;;;;;;5067210;28;20025;-79
2023/12/25 07:01:40;;;;;;;5.43;5.15;;;5.00;99.90;;;;;;5068788;28;20017;-80
2023/12/25 07:04:08;;;;;;;0.10;0.10;;;4.90;99.90;;;;;;5069522;28;20048;-76
2023/12/25 07:06:34;;;;;;;0.10;0.10;;;4.90;99.90;;;;;;5069193;28;20042;-77
2023/12/25 07:08:59;;;;;;;0.10;0.10;;;4.90;99.90;;;;;;5062707;28;20659;-77
2023/12/25 07:11:25;;;;;;;0.20;0.20;;;5.10;99.90;;;;;;5071000;28;20675;-77
2023/12/25 07:13:52;;;;;;;29.88;28.52;;;5.10;99.90;;;;;;5071825;28;20116;-75
2023/12/25 07:16:25;;;;;;;0.10;0.10;;;5.10;99.90;;;;;;5074537;28;20024;-79
2023/12/25 07:18:57;;;;;;;0.00;0.00;;;5.20;99.90;;;;;;5081134;28;20028;-76
2023/12/25 07:21:24;;;;;;;0.00;0.00;;;4.90;99.90;;;;;;5060229;28;20107;-80
2023/12/25 07:23:52;;;;;;;0.10;0.10;;;5.10;99.90;;;;;;5073042;28;20008;-75
2023/12/25 07:26:18;;;;;;;0.10;0.10;;;5.10;99.90;;;;;;5073625;28;20017;-81
2023/12/25 07:28:49;;;;;;;0.05;0.05;;;5.10;99.90;;;;;;5065210;28;20046;-83
2023/12/25 07:31:20;;;;;;;0.10;0.10;;;5.10;99.90;;;;;;5066117;28;20087;-78
2023/12/25 07:33:47;;;;;;;0.10;0.10;;;5.20;99.90;;;;;;5060520;28;20679;-76
2023/12/25 07:36:13;;;;;;;67.95;64.18;;;5.20;99.90;;;;;;5066230;28;20028;-77
2023/12/25 07:38:41;;;;;;;0.10;0.10;;;5.30;99.90;;;;;;5064166;28;20541;-78
2023/12/25 07:41:11;;;;;;;0.10;0.10;;;5.30;99.90;;;;;;5061820;28;20738;-77
2023/12/25 07:43:37;;;;;;;0.00;0.00;;;5.20;99.90;;;;;;5061446;28;20029;-78
2023/12/25 07:46:07;;;;;;;0.10;0.10;;;5.20;99.90;;;;;;5062766;28;20017;-76
2023/12/25 07:48:33;;;;;;;0.00;0.00;;;4.20;99.90;;;;;;5063782;28;20028;-76
2023/12/25 07:50:59;;;;;;;0.10;0.10;;;5.30;99.90;;;;;;5043723;28;20149;-77
2023/12/25 07:53:25;;;;;;;0.10;0.10;;;5.30;99.90;;;;;;5062815;28;20774;-78
2023/12/25 07:55:51;;;;;;;0.20;0.20;;;5.40;99.90;;;;;;5043631;28;20691;-76
2023/12/25 07:58:17;;;;;;;0.03;0.03;;;5.50;99.90;;;;;;5061182;28;20041;-77
2023/12/25 08:00:43;;;;;;;0.10;0.10;;;5.70;99.90;;;;;;5063336;28;20017;-76
2023/12/25 08:03:12;;;;;;;0.10;0.10;;;5.80;99.90;;;;;;5066243;28;20052;-76
2023/12/25 08:05:38;;;;;;;0.85;0.85;;;5.90;99.90;;;;;;5063346;28;20502;-80
2023/12/25 08:08:07;;;;;;;4.47;3.22;;;6.10;99.90;;;;;;5062688;28;20042;-77
2023/12/25 08:10:34;;;;;;;0.08;0.08;;;6.20;99.90;;;;;;5061523;28;20013;-76
2023/12/25 08:13:01;;;;;;;0.10;0.10;;;6.20;99.90;;;;;;5062057;28;20020;-76
2023/12/25 08:15:28;;;;;;;0.03;0.03;;;6.30;99.90;;;;;;5061431;28;20025;-76
2023/12/25 08:17:54;;;;;;;0.10;0.10;;;6.50;99.90;;;;;;5064755;28;20035;-78
2023/12/25 08:20:20;;;;;;;0.60;0.57;;;6.60;99.90;;;;;;5068157;28;20024;-77
2023/12/25 08:22:47;;;;;;;5.07;4.88;;;6.60;99.90;;;;;;5047730;28;20088;-76
2023/12/25 08:25:13;;;;;;;0.10;0.10;;;6.80;99.90;;;;;;5065836;28;20077;-75
2023/12/25 08:27:39;;;;;;;0.10;0.10;;;7.00;99.90;;;;;;5070232;28;20055;-76
2023/12/25 08:30:06;;;;;;;0.20;0.20;;;7.10;99.90;;;;;;5071474;28;20024;-76
2023/12/25 08:32:32;;;;;;;0.10;0.10;;;7.30;99.90;;;;;;5069694;28;20025;-75
2023/12/25 08:34:57;;;;;;;0.40;0.40;;;7.40;99.90;;;;;;5064364;28;20077;-77
2023/12/25 08:37:23;;;;;;;0.10;0.10;;;7.50;99.90;;;;;;5068120;28;20028;-76
2023/12/25 08:39:49;;;;;;;1.73;1.67;;;7.50;99.90;;;;;;5064366;28;20056;-75
2023/12/25 08:42:15;;;;;;;0.10;0.10;;;7.70;99.90;;;;;;5044499;28;20067;-76
2023/12/25 08:44:42;;;;;;;0.10;0.10;;;7.90;99.90;;;;;;5062481;28;20024;-76
2023/12/25 08:47:08;;;;;;;0.55;0.55;;;8.00;99.90;;;;;;5064426;28;20027;-76
2023/12/25 08:49:35;;;;;;;0.20;0.20;;;8.10;99.90;;;;;;5060687;28;20024;-76
2023/12/25 08:52:01;;;;;;;0.20;0.20;;;8.20;99.90;;;;;;5060635;28;20698;-75
2023/12/25 08:54:28;;;;;;;0.20;0.20;;;8.40;99.90;;;;;;5060669;28;20019;-75
2023/12/25 08:56:54;;;;;;;0.20;0.20;;;8.50;99.90;;;;;;5061652;28;20021;-76
2023/12/25 08:59:19;;;;;;;0.10;0.10;;;8.70;99.90;;;;;;5061537;28;20032;-79
2023/12/25 09:01:45;;;;;;;0.20;0.20;;;8.80;99.90;;;;;;5061306;28;20012;-77
2023/12/25 09:04:12;;;;;;;0.20;0.20;;;9.00;99.90;;;;;;5067172;28;20060;-80
2023/12/25 09:06:38;;;;;;;0.45;0.45;;;9.00;99.90;;;;;;5067332;28;20013;-78
2023/12/25 09:09:06;;;;;;;0.20;0.20;;;9.10;99.90;;;;;;5068802;28;20632;-80
2023/12/25 09:11:32;;;;;;;1.77;1.75;;;9.20;99.90;;;;;;5068416;28;20078;-80
2023/12/25 09:13:58;;;;;;;0.20;0.20;;;9.30;99.90;;;;;;5070373;28;20040;-78
2023/12/25 09:16:36;;;;;;;0.20;0.20;;;9.40;99.90;;;;;;5081254;28;20521;-76
2023/12/25 09:19:04;;;;;;;0.20;0.20;;;9.60;99.90;;;;;;5085614;28;20028;-78
2023/12/25 09:21:37;;;;;;;0.20;0.20;;;9.70;99.90;;;;;;5053060;28;20247;-76
2023/12/25 09:24:03;;;;;;;0.30;0.30;;;9.40;99.90;;;;;;5067704;28;20082;-77
2023/12/25 09:26:31;;;;;;;0.20;0.20;;;9.90;99.90;;;;;;5070544;28;20071;-75
2023/12/25 09:28:57;;;;;;;3.50;3.40;;;10.10;99.90;;;;;;5070237;28;20036;-76
2023/12/25 09:31:23;;;;;;;0.20;0.20;;;10.30;99.90;;;;;;5074407;28;20071;-75
2023/12/25 09:33:49;;;;;;;1.20;1.13;;;10.40;99.90;;;;;;5072671;28;20009;-76
2023/12/25 09:36:15;;;;;;;0.20;0.20;;;10.60;99.90;;;;;;5073201;28;20024;-77
2023/12/25 09:38:40;;;;;;;0.40;0.40;;;10.60;99.90;;;;;;5070112;28;20052;-77
2023/12/25 09:41:09;;;;;;;0.20;0.20;;;10.90;99.90;;;;;;5073598;28;20510;-76
2023/12/25 09:43:41;;;;;;;0.20;0.20;;;11.10;99.90;;;;;;5070693;28;20528;-77
2023/12/25 09:46:11;;;;;;;0.30;0.30;;;11.20;99.90;;;;;;5075334;28;20023;-76
2023/12/25 09:48:38;;;;;;;2.15;2.05;;;11.40;99.90;;;;;;5070791;28;20059;-78
2023/12/25 09:51:06;;;;;;;0.75;0.75;;;11.50;99.90;;;;;;5062358;28;20055;-77
2023/12/25 09:53:31;;;;;;;0.22;0.22;;;11.50;99.90;;;;;;5047439;28;20017;-78
2023/12/25 09:56:00;;;;;;;0.30;0.30;;;11.70;99.90;;;;;;5067883;28;20597;-80
2023/12/25 09:58:27;;;;;;;10.50;9.88;;;11.80;99.90;;;;;;5061734;28;20150;-79
2023/12/25 10:00:54;;;;;;;0.20;0.20;;;12.00;99.90;;;;;;5061361;28;20458;-79
2023/12/25 10:03:21;;;;;;;0.45;0.45;;;12.20;99.90;;;;;;5061896;28;20048;-77
2023/12/25 10:05:47;;;;;;;0.20;0.20;;;12.40;99.90;;;;;;5064725;28;20096;-82
2023/12/25 10:08:13;;;;;;;1.30;1.25;;;12.60;99.90;;;;;;5061856;28;20096;-84
2023/12/25 10:10:38;;;;;;;0.50;0.50;;;12.70;99.90;;;;;;5061435;28;20799;-85
2023/12/25 10:13:04;;;;;;;0.20;0.20;;;12.80;99.90;;;;;;5042939;28;20083;-79
2023/12/25 10:15:33;;;;;;;0.20;0.20;;;12.80;99.90;;;;;;5061010;28;20109;-76
2023/12/25 10:18:06;;;;;;;0.45;0.45;;;13.00;99.90;;;;;;5060999;28;20674;-77
2023/12/25 10:20:32;;;;;;;1.07;1.07;;;13.20;99.90;;;;;;5060870;28;20383;-80
2023/12/25 10:22:59;;;;;;;0.20;0.20;;;13.40;99.90;;;;;;5060752;28;20047;-77
2023/12/25 10:25:28;;;;;;;0.30;0.30;;;13.60;99.70;;;;;;5042564;28;20021;-80
2023/12/25 10:27:54;;;;;;;3.25;3.13;;;13.80;99.50;;;;;;5060502;28;20032;-77
2023/12/25 10:30:23;;;;;;;0.30;0.30;;;14.00;98.90;;;;;;5042358;28;20013;-85
2023/12/25 10:33:07;;;;;;;3.03;2.72;;;14.20;99.20;;;;;;5060451;28;20682;-77
2023/12/25 10:35:33;;;;;;;0.17;0.17;;;14.40;98.20;;;;;;5060888;28;20610;-77
2023/12/25 10:37:59;;;;;;;0.20;0.20;;;14.60;97.60;;;;;;5060100;28;20043;-83
2023/12/25 10:40:25;;;;;;;0.47;0.47;;;14.70;98.10;;;;;;5059967;28;20036;-75
2023/12/25 10:42:54;;;;;;;0.20;0.20;;;14.60;98.60;;;;;;5059921;28;20063;-84
2023/12/25 10:45:24;;;;;;;0.43;0.43;;;14.80;97.70;;;;;;5060327;28;20048;-77
2023/12/25 10:47:55;;;;;;;1.00;1.00;;;14.70;97.90;;;;;;5060267;28;20021;-80
2023/12/25 10:50:26;;;;;;;0.40;0.40;;;15.00;96.80;;;;;;5059980;28;20017;-79
2023/12/25 10:52:54;;;;;;;0.20;0.20;;;15.00;97.50;;;;;;5060126;28;20020;-77
2023/12/25 10:55:31;;;;;;;0.77;0.77;;;15.20;96.50;;;;;;5060060;28;20078;-76
2023/12/25 10:57:58;;;;;;;4.78;2.70;;;15.40;96.00;;;;;;5042318;28;20047;-77
2023/12/25 11:00:25;;;;;;;0.30;0.30;;;18.70;96.60;;;;;;5060234;28;20522;-78
2023/12/25 11:02:55;;;;;;;0.43;0.43;;;15.80;94.50;;;;;;5059895;28;20049;-78
2023/12/25 11:05:21;;;;;;;0.28;0.28;;;15.70;95.40;;;;;;5058935;28;20020;-75
2023/12/25 11:07:48;;;;;;;4.82;2.38;;;15.80;95.30;;;;;;5060066;28;20358;-79
2023/12/25 11:10:14;;;;;;;0.20;0.20;;;16.00;94.60;;;;;;5059529;28;20024;-79
2023/12/25 11:12:40;;;;;;;0.30;0.30;;;16.10;93.60;;;;;;5040755;28;20029;-76
2023/12/25 11:15:07;;;;;;;1.65;1.55;;;16.10;94.40;;;;;;5039559;28;20032;-76
2023/12/25 11:17:34;;;;;;;0.75;0.75;;;16.20;93.40;;;;;;5039538;28;20035;-84
2023/12/25 11:20:04;;;;;;;0.50;0.50;;;16.40;93.50;;;;;;5022044;28;20025;-78
2023/12/25 11:22:33;;;;;;;3.42;2.30;;;16.40;92.70;;;;;;5039736;28;20100;-77
2023/12/25 11:25:00;;;;;;;2.75;2.60;;;16.30;93.60;;;;;;5039116;28;20029;-79
2023/12/25 11:27:26;;;;;;;0.20;0.20;;;16.50;93.80;;;;;;5039220;28;20013;-75
2023/12/25 11:30:00;;;;;;;0.22;0.22;;;16.60;93.50;;;;;;5039423;28;20017;-80
2023/12/25 11:32:27;;;;;;;1.25;1.20;;;16.60;92.90;;;;;;5039375;28;20021;-75
2023/12/25 11:34:56;;;;;;;1.33;1.00;;;16.90;92.70;;;;;;5039226;28;20021;-76
2023/12/25 11:37:23;;;;;;;0.30;0.30;;;17.90;92.20;;;;;;5038676;28;20033;-79
2023/12/25 11:40:09;;;;;;;7.68;2.28;;;17.10;92.10;;;;;;5039704;28;20033;-79
2023/12/25 11:42:36;;;;;;;0.50;0.50;;;14.90;91.30;;;;;;5038602;28;20040;-77
2023/12/25 11:45:06;;;;;;;1.40;1.38;;;17.30;91.80;;;;;;5039091;28;20671;-76
2023/12/25 11:47:44;;;;;;;0.52;0.52;;;17.40;91.90;;;;;;5039151;28;20029;-75
2023/12/25 11:50:14;;;;;;;0.38;0.38;;;17.50;91.20;;;;;;5022493;28;20028;-75
2023/12/25 11:52:46;;;;;;;0.20;0.20;;;17.40;90.40;;;;;;5039138;28;20028;-80
2023/12/25 11:55:18;;;;;;;0.68;0.68;;;17.50;90.50;;;;;;5039008;28;20021;-78
2023/12/25 11:57:45;;;;;;;0.47;0.47;;;17.60;90.40;;;;;;5038737;28;20043;-76
2023/12/25 12:00:31;;;;;;;3.47;3.28;;;17.70;90.60;;;;;;5039021;28;20029;-76
2023/12/25 12:02:58;;;;;;;3.17;1.20;;;17.70;90.10;;;;;;5015296;28;20049;-78
2023/12/25 12:05:25;;;;;;;3.88;3.72;;;17.60;90.20;;;;;;5018746;28;20017;-82
2023/12/25 12:07:50;;;;;;;2.65;1.75;;;17.70;90.10;;;;;;5018858;28;20656;-82
2023/12/25 12:10:17;;;;;;;1.45;1.35;;;17.60;90.20;;;;;;5018565;28;20017;-81
2023/12/25 12:12:43;;;;;;;0.47;0.47;;;17.60;90.50;;;;;;5018734;28;20018;-76
2023/12/25 12:15:10;;;;;;;1.75;1.65;;;17.60;90.30;;;;;;5018493;28;20156;-77
2023/12/25 12:17:36;;;;;;;1.63;1.63;;;17.60;90.30;;;;;;5019334;28;20672;-75
2023/12/25 12:20:03;;;;;;;0.30;0.30;;;17.50;90.60;;;;;;5018593;28;20022;-77
2023/12/25 12:22:29;;;;;;;3.75;3.08;;;17.60;90.50;;;;;;5018944;28;20032;-74
2023/12/25 12:25:13;;;;;;;2.42;2.33;;;17.70;90.50;;;;;;5018750;28;20061;-84
2023/12/25 12:27:39;;;;;;;3.05;2.85;;;17.70;90.80;;;;;;5018818;28;20017;-76
2023/12/25 12:30:07;;;;;;;4.85;3.40;;;17.80;90.60;;;;;;5018734;28;20025;-81
2023/12/25 12:32:34;;;;;;;1.00;1.00;;;17.90;90.50;;;;;;5018482;28;20673;-81
2023/12/25 12:35:00;;;;;;;3.33;3.13;;;18.10;90.50;;;;;;5019009;28;20021;-79
2023/12/25 12:37:26;;;;;;;1.75;1.65;;;18.10;90.00;;;;;;5018794;28;20026;-75
2023/12/25 12:39:52;;;;;;;5.50;5.03;;;18.10;87.60;;;;;;5018230;28;20568;-84
2023/12/25 12:42:21;;;;;;;1.23;1.13;;;18.10;87.70;;;;;;5018735;28;20010;-80
2023/12/25 12:44:50;;;;;;;0.65;0.65;;;18.10;88.10;;;;;;5018276;28;20103;-76
2023/12/25 12:47:15;;;;;;;0.50;0.50;;;18.00;86.60;;;;;;5018711;28;20511;-77
2023/12/25 12:49:41;;;;;;;0.40;0.40;;;18.00;86.20;;;;;;5018779;28;20037;-80
2023/12/25 12:52:07;;;;;;;0.28;0.28;;;18.00;85.70;;;;;;5018553;28;20018;-79
2023/12/25 12:54:33;;;;;;;0.20;0.20;;;17.80;85.70;;;;;;5020595;28;20101;-76